Time;durP1;ratioP1;P1;durP2;ratioP2;P2;SDS_P1;SDS_P2;PMS_P1;PMS_P2;Temp;Humidity;BMP_temperature;BMP_pressure;BME280_temperature;BME280_humidity;BME280_pressure;Samples;Min_cycle;Max_cycle;Signal;HPM_P1;HPM_P2
2022/10/07 00:00:52;;;;;;;14.10;4.25;;;;;;;11.29;72.91;102518.19;3582030;40;20447;-63
2022/10/07 00:03:21;;;;;;;15.35;4.20;;;;;;;11.26;73.45;102520.09;3585045;40;20052;-63
2022/10/07 00:05:46;;;;;;;10.43;3.53;;;;;;;11.21;73.25;102522.97;3581609;40;20060;-63
2022/10/07 00:08:12;;;;;;;13.90;4.40;;;;;;;11.20;74.12;102509.56;3590974;39;20307;-63
2022/10/07 00:10:42;;;;;;;11.38;3.75;;;;;;;11.05;74.01;102489.47;3583936;40;20060;-63
2022/10/07 00:13:10;;;;;;;15.75;3.90;;;;;;;10.58;73.67;102414.09;3581243;40;20106;-64
2022/10/07 00:15:36;;;;;;;14.48;3.83;;;;;;;10.14;73.59;102338.59;3581478;40;20355;-63
2022/10/07 00:18:02;;;;;;;13.82;4.00;;;;;;;11.08;73.60;102502.81;3581061;40;20069;-63
2022/10/07 00:20:28;;;;;;;13.30;4.32;;;;;;;11.04;74.17;102503.88;3582465;40;20052;-63
2022/10/07 00:22:54;;;;;;;13.38;4.07;;;;;;;11.02;73.81;102503.06;3580858;40;20220;-63
2022/10/07 00:25:20;;;;;;;14.05;4.65;;;;;;;11.03;74.33;102499.41;3580947;40;20453;-62
2022/10/07 00:27:46;;;;;;;16.50;4.45;;;;;;;11.03;73.85;102500.28;3582174;40;20068;-64
2022/10/07 00:30:12;;;;;;;11.40;4.07;;;;;;;10.20;74.35;102360.72;3581480;40;20304;-63
2022/10/07 00:32:37;;;;;;;12.68;4.32;;;;;;;11.03;74.24;102496.72;3580329;40;20047;-63
2022/10/07 00:35:03;;;;;;;12.30;4.05;;;;;;;11.02;74.54;102497.66;3579203;40;20410;-63
2022/10/07 00:37:29;;;;;;;14.27;4.85;;;;;;;10.34;74.28;102375.50;3582737;40;20076;-62
2022/10/07 00:39:54;;;;;;;14.68;4.10;;;;;;;11.00;74.73;102480.69;3576598;40;20392;-63
2022/10/07 00:42:20;;;;;;;11.10;3.97;;;;;;;10.43;74.46;102394.91;3582628;40;20076;-63
2022/10/07 00:44:47;;;;;;;14.73;4.00;;;;;;;10.97;74.03;102489.75;3582152;40;20296;-63
2022/10/07 00:47:28;;;;;;;14.20;4.00;;;;;;;10.92;74.72;102487.25;3581417;40;20055;-63
2022/10/07 00:50:06;;;;;;;15.02;4.43;;;;;;;10.91;74.21;102482.81;3578753;40;20056;-63
2022/10/07 00:52:39;;;;;;;14.00;3.65;;;;;;;10.91;74.27;102477.41;3579094;40;20084;-64
2022/10/07 00:55:13;;;;;;;13.88;4.22;;;;;;;10.19;74.02;102359.00;3579120;40;20064;-62
2022/10/07 00:57:41;;;;;;;13.27;3.90;;;;;;;9.83;74.64;102299.38;3583531;40;20106;-63
2022/10/07 01:00:08;;;;;;;16.50;4.15;;;;;;;10.86;74.75;102473.13;3578931;40;20174;-63
2022/10/07 01:02:35;;;;;;;13.73;4.47;;;;;;;10.83;74.39;102476.81;3578558;40;20157;-63
2022/10/07 01:05:06;;;;;;;11.63;4.07;;;;;;;10.82;74.91;102466.13;3578738;40;20140;-63
2022/10/07 01:07:33;;;;;;;13.35;3.85;;;;;;;10.76;74.40;102455.59;3580345;40;20060;-63
2022/10/07 01:10:00;;;;;;;16.27;4.07;;;;;;;10.78;75.06;102456.38;3579538;40;20623;-62
2022/10/07 01:13:02;;;;;;;13.43;3.78;;;;;;;10.74;74.75;102457.44;3577469;40;20366;-63
2022/10/07 01:15:41;;;;;;;12.40;3.63;;;;;;;10.72;74.94;102459.28;3580541;40;20067;-62
2022/10/07 01:18:36;;;;;;;12.00;4.43;;;;;;;10.69;75.50;102455.81;3578554;40;20060;-62
2022/10/07 01:21:12;;;;;;;13.93;4.35;;;;;;;10.66;74.95;102450.53;3578506;40;20096;-63
2022/10/07 01:24:15;;;;;;;16.42;3.97;;;;;;;10.66;75.81;102446.97;3586669;39;20054;-63
2022/10/07 01:27:02;;;;;;;9.38;3.42;;;;;;;10.68;74.98;102439.72;3581108;40;20044;-62
2022/10/07 01:30:00;;;;;;;16.35;4.32;;;;;;;10.66;75.64;102444.28;3581029;40;20111;-62
2022/10/07 01:32:35;;;;;;;9.25;3.97;;;;;;;10.67;75.94;102440.66;3581245;40;20066;-62
2022/10/07 01:35:07;;;;;;;13.07;3.88;;;;;;;10.68;75.69;102437.00;3579445;40;20605;-62
2022/10/07 01:37:41;;;;;;;19.77;4.57;;;;;;;10.68;75.27;102421.75;3580442;40;20092;-63
2022/10/07 01:40:20;;;;;;;15.48;4.00;;;;;;;10.67;75.35;102419.13;3578823;40;20063;-62
2022/10/07 01:42:50;;;;;;;13.77;4.13;;;;;;;10.68;75.17;102427.13;3580227;40;20175;-62
2022/10/07 01:45:21;;;;;;;16.52;4.55;;;;;;;10.64;75.24;102403.13;3587919;39;20090;-62
2022/10/07 01:47:50;;;;;;;13.30;4.32;;;;;;;10.59;76.02;102392.53;3577728;40;20134;-62
2022/10/07 01:50:24;;;;;;;14.98;4.57;;;;;;;10.65;76.05;102404.84;3580507;40;20059;-61
2022/10/07 01:52:50;;;;;;;13.50;4.30;;;;;;;10.63;76.03;102396.00;3579999;40;20065;-62
2022/10/07 01:55:43;;;;;;;14.27;5.18;;;;;;;10.59;75.45;102392.53;3584338;40;20068;-62
2022/10/07 01:58:44;;;;;;;19.02;4.80;;;;;;;10.56;76.28;102392.66;3580501;40;20384;-63
2022/10/07 02:01:15;;;;;;;14.77;5.07;;;;;;;10.54;76.30;102381.06;3573530;40;20342;-62
2022/10/07 02:04:04;;;;;;;15.15;4.90;;;;;;;10.53;75.36;102381.09;3578078;40;20308;-62
2022/10/07 02:06:48;;;;;;;15.85;4.78;;;;;;;10.52;76.55;102382.03;3560020;40;20060;-62
2022/10/07 02:09:36;;;;;;;12.32;4.82;;;;;;;10.43;75.75;102362.66;3580525;40;20048;-62
2022/10/07 02:12:39;;;;;;;13.57;4.75;;;;;;;10.49;76.59;102369.59;3579460;40;20060;-63
2022/10/07 02:15:18;;;;;;;16.95;4.97;;;;;;;10.49;75.33;102377.66;3564706;40;20322;-62
2022/10/07 02:18:02;;;;;;;15.30;4.50;;;;;;;10.23;75.66;102335.56;3579094;40;20100;-61
2022/10/07 02:20:35;;;;;;;17.48;4.55;;;;;;;10.41;76.30;102369.00;3578380;40;20417;-62
2022/10/07 02:23:08;;;;;;;14.95;4.85;;;;;;;10.41;76.56;102361.81;3577947;40;20103;-62
2022/10/07 02:25:43;;;;;;;15.25;5.07;;;;;;;10.40;75.77;102357.38;3577739;40;20056;-61
2022/10/07 02:28:18;;;;;;;19.48;5.13;;;;;;;10.39;76.28;102357.41;3580009;40;20117;-61
2022/10/07 02:30:52;;;;;;;14.93;4.70;;;;;;;10.38;76.39;102353.84;3580081;40;20052;-62
2022/10/07 02:33:23;;;;;;;20.23;5.57;;;;;;;10.29;76.23;102343.44;3576577;40;20060;-62
2022/10/07 02:36:15;;;;;;;16.20;5.32;;;;;;;10.34;75.70;102346.84;3579001;40;20052;-62
2022/10/07 02:38:43;;;;;;;13.40;4.30;;;;;;;10.08;76.05;102301.19;3577870;40;20052;-62
2022/10/07 02:41:30;;;;;;;14.85;4.70;;;;;;;10.33;76.46;102342.38;3577885;40;20494;-61
2022/10/07 02:44:28;;;;;;;16.48;4.82;;;;;;;10.34;76.50;102341.47;3575270;40;20049;-63
2022/10/07 02:47:27;;;;;;;15.40;4.40;;;;;;;9.62;75.89;102227.63;3578811;40;20056;-62
2022/10/07 02:50:00;;;;;;;13.10;4.57;;;;;;;10.31;75.72;102328.16;3580159;40;20054;-62
2022/10/07 02:52:30;;;;;;;17.25;4.57;;;;;;;10.29;75.92;102324.63;3579332;40;20068;-62
2022/10/07 02:55:23;;;;;;;15.73;4.47;;;;;;;10.10;76.26;102310.94;3578378;40;20052;-62
2022/10/07 02:57:57;;;;;;;13.27;4.32;;;;;;;10.23;76.43;102319.44;3580262;40;20051;-62
2022/10/07 03:00:23;;;;;;;15.45;5.47;;;;;;;10.24;75.56;102321.19;3579908;40;20080;-62
2022/10/07 03:02:53;;;;;;;14.35;4.85;;;;;;;9.47;76.40;102189.66;3581100;39;20056;-62
2022/10/07 03:05:23;;;;;;;14.32;4.95;;;;;;;10.09;76.01;102294.91;3585318;39;20092;-62
2022/10/07 03:07:59;;;;;;;11.45;4.70;;;;;;;10.15;76.16;102317.03;3581584;40;20402;-62
2022/10/07 03:10:26;;;;;;;13.13;4.60;;;;;;;9.37;76.67;102179.31;3577988;40;20060;-62
2022/10/07 03:12:52;;;;;;;22.33;5.25;;;;;;;10.09;76.19;102308.34;3577255;40;20319;-62
2022/10/07 03:15:18;;;;;;;11.48;4.43;;;;;;;10.08;77.10;102303.88;3578495;40;20677;-63
2022/10/07 03:17:44;;;;;;;12.57;4.60;;;;;;;9.29;76.39;102166.13;3579606;40;20047;-62
2022/10/07 03:20:14;;;;;;;16.88;4.57;;;;;;;10.05;76.57;102301.28;3580880;40;20057;-62
2022/10/07 03:22:43;;;;;;;17.98;4.75;;;;;;;10.05;76.07;102306.66;3582668;40;20052;-62
2022/10/07 03:25:10;;;;;;;20.25;5.38;;;;;;;10.02;76.45;102299.59;3578220;40;20133;-61
2022/10/07 03:27:37;;;;;;;17.42;5.20;;;;;;;10.00;76.31;102299.66;3579099;40;20093;-62
2022/10/07 03:30:04;;;;;;;20.08;5.25;;;;;;;9.98;76.24;102289.88;3584962;39;20292;-62
2022/10/07 03:32:30;;;;;;;13.00;4.45;;;;;;;9.94;76.51;102281.06;3578405;40;20060;-61
2022/10/07 03:34:56;;;;;;;16.00;4.88;;;;;;;9.93;75.86;102279.31;3576603;40;20092;-62
2022/10/07 03:37:23;;;;;;;18.58;5.03;;;;;;;9.99;76.33;102288.97;3577912;40;20056;-62
2022/10/07 03:39:49;;;;;;;17.17;4.50;;;;;;;10.02;76.95;102301.41;3576792;40;20056;-64
2022/10/07 03:42:15;;;;;;;16.45;4.88;;;;;;;9.22;76.69;102149.38;3579306;40;20134;-62
2022/10/07 03:44:41;;;;;;;21.75;5.03;;;;;;;9.95;76.52;102263.13;3579688;39;20060;-61
2022/10/07 03:47:07;;;;;;;15.50;5.20;;;;;;;9.99;77.05;102280.91;3577528;40;20053;-61
2022/10/07 03:49:35;;;;;;;11.27;4.80;;;;;;;9.99;76.31;102276.41;3581332;40;20064;-62
2022/10/07 03:52:02;;;;;;;12.98;5.07;;;;;;;9.98;76.06;102269.28;3579582;40;20045;-62
2022/10/07 03:54:28;;;;;;;13.63;4.68;;;;;;;9.97;76.59;102289.03;3578512;40;20068;-61
2022/10/07 03:56:54;;;;;;;13.27;4.50;;;;;;;9.47;76.28;102191.47;3578243;40;20118;-61
2022/10/07 03:59:20;;;;;;;16.40;4.93;;;;;;;9.96;76.41;102275.66;3579041;40;20060;-61
2022/10/07 04:01:46;;;;;;;14.52;4.78;;;;;;;9.94;76.96;102269.44;3578051;40;20091;-62
2022/10/07 04:04:12;;;;;;;17.10;5.53;;;;;;;9.96;76.27;102271.16;3579562;40;20421;-61
2022/10/07 04:06:37;;;;;;;20.73;4.88;;;;;;;9.20;76.74;102145.91;3580887;40;20068;-61
2022/10/07 04:09:04;;;;;;;17.83;4.93;;;;;;;9.39;76.67;102172.09;3579275;40;20055;-61
2022/10/07 04:11:30;;;;;;;16.48;5.00;;;;;;;9.93;77.08;102271.25;3580974;40;20308;-61
2022/10/07 04:13:59;;;;;;;14.68;5.07;;;;;;;9.96;76.11;102270.28;3579802;40;20145;-62
2022/10/07 04:16:26;;;;;;;13.20;4.82;;;;;;;9.93;75.87;102268.59;3583659;40;20049;-61
2022/10/07 04:18:56;;;;;;;13.13;4.70;;;;;;;9.80;77.03;102243.09;3580299;40;20118;-62
2022/10/07 04:21:22;;;;;;;18.02;5.32;;;;;;;9.89;76.30;102266.91;3579268;39;20056;-62
2022/10/07 04:23:48;;;;;;;17.77;5.63;;;;;;;9.87;76.79;102267.94;3582980;40;20056;-62
2022/10/07 04:26:14;;;;;;;18.75;4.85;;;;;;;9.84;76.37;102255.47;3587696;39;20381;-62
2022/10/07 04:28:40;;;;;;;16.45;4.88;;;;;;;9.83;76.41;102259.09;3581809;40;20056;-61
2022/10/07 04:31:09;;;;;;;13.88;4.82;;;;;;;9.81;76.73;102255.59;3582344;40;20056;-62
2022/10/07 04:33:39;;;;;;;14.65;4.63;;;;;;;9.79;76.76;102252.06;3583021;40;20837;-62
2022/10/07 04:36:08;;;;;;;19.33;5.68;;;;;;;9.75;77.29;102258.50;3590796;39;20054;-62
2022/10/07 04:38:34;;;;;;;15.80;5.35;;;;;;;9.72;76.69;102263.97;3581976;40;20060;-61
2022/10/07 04:41:04;;;;;;;14.02;4.68;;;;;;;9.74;77.13;102264.81;3581065;40;20052;-62
2022/10/07 04:43:32;;;;;;;15.60;4.93;;;;;;;9.50;77.06;102224.44;3581477;40;20075;-61
2022/10/07 04:46:08;;;;;;;16.83;5.05;;;;;;;9.70;77.01;102255.94;3582571;40;20736;-63
2022/10/07 04:48:35;;;;;;;19.50;5.20;;;;;;;9.72;76.81;102255.91;3581479;40;20125;-62
2022/10/07 04:51:07;;;;;;;18.05;4.90;;;;;;;8.87;76.76;102115.72;3588281;39;20052;-62
2022/10/07 04:53:35;;;;;;;15.57;4.68;;;;;;;9.71;76.67;102254.16;3583179;40;20056;-63
2022/10/07 04:56:01;;;;;;;21.35;4.75;;;;;;;9.72;77.05;102253.22;3578627;40;20089;-62
2022/10/07 04:58:29;;;;;;;15.48;4.55;;;;;;;9.70;76.63;102247.03;3581486;40;20056;-62
2022/10/07 05:00:56;;;;;;;15.88;5.13;;;;;;;8.60;76.52;102069.31;3585550;39;20062;-63
2022/10/07 05:03:26;;;;;;;12.10;4.50;;;;;;;9.13;76.94;102155.06;3581596;40;20087;-62
2022/10/07 05:05:55;;;;;;;18.95;5.20;;;;;;;8.87;77.14;102104.13;3581984;40;20063;-62
2022/10/07 05:08:23;;;;;;;14.32;4.25;;;;;;;9.66;76.96;102242.69;3578433;40;20206;-63
2022/10/07 05:10:57;;;;;;;15.13;4.55;;;;;;;9.65;76.74;102240.94;3578425;40;20044;-62
2022/10/07 05:13:25;;;;;;;12.85;4.85;;;;;;;9.62;77.16;102238.38;3581379;40;20151;-62
2022/10/07 05:16:00;;;;;;;17.55;4.82;;;;;;;9.61;77.31;102236.59;3578230;40;20269;-64
2022/10/07 05:18:28;;;;;;;15.65;4.78;;;;;;;9.58;77.01;102237.63;3579480;40;20149;-63
2022/10/07 05:20:55;;;;;;;20.73;5.28;;;;;;;9.59;76.97;102227.75;3579330;40;20055;-63
2022/10/07 05:23:23;;;;;;;15.15;5.03;;;;;;;9.58;76.81;102225.97;3578214;40;20075;-62
2022/10/07 05:26:03;;;;;;;12.25;4.57;;;;;;;9.46;77.60;102204.00;3579081;40;20100;-63
2022/10/07 05:28:29;;;;;;;11.65;4.30;;;;;;;9.61;77.98;102223.19;3579173;40;20362;-63
2022/10/07 05:31:04;;;;;;;16.38;4.57;;;;;;;9.61;77.25;102225.88;3578444;40;20055;-63
2022/10/07 05:33:30;;;;;;;16.40;4.63;;;;;;;8.86;77.53;102089.00;3578298;40;20328;-62
2022/10/07 05:35:57;;;;;;;12.85;4.38;;;;;;;9.62;77.62;102220.47;3581425;40;20066;-63
2022/10/07 05:38:23;;;;;;;13.73;4.22;;;;;;;9.64;76.81;102225.75;3578079;40;20072;-63
2022/10/07 05:40:59;;;;;;;16.10;3.90;;;;;;;9.62;76.74;102219.59;3579241;40;20134;-64
2022/10/07 05:43:30;;;;;;;15.27;4.45;;;;;;;9.63;77.44;102215.97;3586857;39;20174;-63
2022/10/07 05:46:06;;;;;;;14.73;4.00;;;;;;;9.64;77.72;102217.69;3580807;40;20641;-63
2022/10/07 05:48:34;;;;;;;13.75;4.40;;;;;;;9.58;77.17;102204.50;3577499;40;20307;-62
2022/10/07 05:51:00;;;;;;;17.38;4.38;;;;;;;9.63;77.57;102221.31;3580298;40;20083;-63
2022/10/07 05:53:29;;;;;;;13.25;4.53;;;;;;;9.61;77.68;102210.66;3579343;40;20085;-62
2022/10/07 05:55:54;;;;;;;10.25;4.15;;;;;;;9.65;77.17;102222.16;3578402;40;20054;-62
2022/10/07 05:58:21;;;;;;;21.90;4.80;;;;;;;9.67;77.09;102213.13;3579380;40;20427;-63
2022/10/07 06:00:58;;;;;;;18.15;4.03;;;;;;;9.22;77.36;102130.59;3580913;40;20380;-62
2022/10/07 06:03:25;;;;;;;13.13;4.10;;;;;;;9.66;77.34;102202.44;3578255;40;20057;-62
2022/10/07 06:05:54;;;;;;;14.55;4.32;;;;;;;9.65;77.19;102192.63;3576158;40;20052;-62
2022/10/07 06:08:22;;;;;;;12.38;4.15;;;;;;;9.76;77.45;102203.84;3577117;40;20107;-62
2022/10/07 06:13:34;;;;;;;20.83;4.30;;;;;;;9.27;76.91;102117.03;3574747;40;20047;-62
2022/10/07 06:16:03;;;;;;;12.93;3.85;;;;;;;9.72;76.83;102194.16;3575293;40;20064;-62
2022/10/07 06:18:29;;;;;;;13.25;3.72;;;;;;;9.74;77.39;102184.25;3578739;40;20360;-63
2022/10/07 06:20:59;;;;;;;14.50;4.15;;;;;;;9.13;76.97;102073.72;3575695;40;20056;-63
2022/10/07 06:23:26;;;;;;;11.95;3.40;;;;;;;9.86;77.06;102193.63;3579477;40;20734;-62
2022/10/07 06:25:59;;;;;;;13.98;3.85;;;;;;;9.87;76.63;102190.03;3576775;40;20052;-64
2022/10/07 06:28:25;;;;;;;11.45;3.97;;;;;;;9.63;77.03;102143.47;3583218;39;20068;-62
2022/10/07 06:30:51;;;;;;;12.75;3.53;;;;;;;8.81;76.51;101992.59;3576920;40;20346;-62
2022/10/07 06:33:18;;;;;;;9.02;2.70;;;;;;;10.06;76.07;102198.28;3577223;40;20059;-61
2022/10/07 06:35:45;;;;;;;15.15;4.18;;;;;;;10.12;75.86;102190.88;3577421;40;20044;-64
2022/10/07 06:38:11;;;;;;;11.38;3.50;;;;;;;10.20;76.36;102204.00;3576200;40;20381;-63
2022/10/07 06:40:37;;;;;;;13.60;3.45;;;;;;;10.26;75.84;102194.84;3583070;39;20060;-63
2022/10/07 06:43:04;;;;;;;11.75;3.42;;;;;;;10.26;75.69;102190.34;3581142;40;20053;-63
2022/10/07 06:45:32;;;;;;;12.68;3.40;;;;;;;10.32;75.52;102192.81;3578298;40;20055;-63
2022/10/07 06:47:58;;;;;;;15.13;4.25;;;;;;;10.35;75.09;102198.06;3585717;39;20056;-63
2022/10/07 06:50:25;;;;;;;15.55;3.63;;;;;;;10.41;75.16;102194.28;3577789;40;20056;-63
2022/10/07 06:52:51;;;;;;;16.88;3.58;;;;;;;10.39;75.17;102185.38;3585602;39;20066;-63
2022/10/07 06:55:16;;;;;;;17.38;3.80;;;;;;;10.54;75.84;102192.84;3576728;40;20387;-63
2022/10/07 06:57:44;;;;;;;13.48;3.80;;;;;;;10.58;75.19;102190.91;3576963;40;20055;-63
2022/10/07 07:00:10;;;;;;;10.60;3.40;;;;;;;10.61;75.16;102193.47;3580123;40;20067;-63
2022/10/07 07:02:36;;;;;;;12.93;3.50;;;;;;;10.69;74.88;102202.13;3578824;40;20100;-63
2022/10/07 07:05:04;;;;;;;12.05;4.57;;;;;;;10.74;75.01;102192.03;3577004;40;20060;-63
2022/10/07 07:07:30;;;;;;;15.73;3.60;;;;;;;10.73;74.71;102181.34;3576021;40;20388;-63
2022/10/07 07:09:56;;;;;;;9.05;3.63;;;;;;;10.38;74.73;102111.94;3576829;40;20056;-63
2022/10/07 07:12:25;;;;;;;10.90;3.42;;;;;;;11.00;74.68;102195.47;3579004;40;20072;-63
2022/10/07 07:14:51;;;;;;;12.93;3.90;;;;;;;11.09;73.66;102195.09;3580088;39;20049;-61
2022/10/07 07:17:17;;;;;;;16.35;4.80;;;;;;;11.10;74.04;102178.00;3576335;40;20064;-62
2022/10/07 07:19:45;;;;;;;13.57;3.30;;;;;;;11.36;73.16;102193.03;3578548;40;20151;-62
2022/10/07 07:22:11;;;;;;;12.90;3.15;;;;;;;11.50;72.91;102206.78;3578437;40;20050;-62
2022/10/07 07:24:37;;;;;;;17.67;3.50;;;;;;;11.64;72.37;102203.50;3579276;40;20061;-63
2022/10/07 07:27:03;;;;;;;10.52;3.78;;;;;;;11.75;72.11;102203.88;3578177;40;20060;-62
2022/10/07 07:29:29;;;;;;;10.98;2.88;;;;;;;11.90;71.02;102207.75;3579119;40;20138;-62
2022/10/07 07:31:55;;;;;;;9.45;2.72;;;;;;;11.51;70.93;102106.22;3580308;40;20080;-63
2022/10/07 07:34:20;;;;;;;17.30;3.63;;;;;;;11.77;70.01;102123.88;3578314;40;20392;-62
2022/10/07 07:36:52;;;;;;;12.55;3.70;;;;;;;12.16;69.98;102163.41;3583496;40;20060;-63
2022/10/07 07:39:19;;;;;;;12.95;3.20;;;;;;;12.63;69.54;102189.94;3581368;40;20092;-63
2022/10/07 07:41:49;;;;;;;8.82;2.60;;;;;;;11.87;67.79;102031.88;3581018;40;20129;-62
2022/10/07 07:44:17;;;;;;;10.00;3.20;;;;;;;12.91;67.37;102172.38;3581622;40;20048;-62
2022/10/07 07:46:48;;;;;;;11.45;3.28;;;;;;;13.26;66.10;102200.31;3580576;40;20064;-61
2022/10/07 07:49:14;;;;;;;9.80;3.35;;;;;;;13.35;65.91;102194.47;3579641;40;20054;-61
2022/10/07 07:51:41;;;;;;;13.18;3.72;;;;;;;13.00;66.44;102107.13;3584276;40;20052;-62
2022/10/07 07:54:08;;;;;;;11.27;2.83;;;;;;;13.61;66.01;102205.72;3576014;40;20334;-64
2022/10/07 07:56:34;;;;;;;11.82;3.10;;;;;;;13.67;64.96;102200.88;3579847;40;20052;-62
2022/10/07 07:59:02;;;;;;;9.00;2.80;;;;;;;13.78;64.66;102197.59;3582905;40;20079;-62
2022/10/07 08:01:30;;;;;;;12.57;3.50;;;;;;;13.87;64.62;102207.91;3580740;40;20178;-62
2022/10/07 08:03:57;;;;;;;12.23;3.15;;;;;;;13.22;63.82;102085.28;3580772;40;20044;-62
2022/10/07 08:06:26;;;;;;;10.65;3.17;;;;;;;13.34;63.57;102102.69;3579263;40;20084;-62
2022/10/07 08:08:57;;;;;;;12.30;3.38;;;;;;;12.94;63.62;102002.16;3578620;40;20314;-62
2022/10/07 08:11:24;;;;;;;11.48;3.17;;;;;;;14.17;63.71;102196.38;3577437;40;20051;-62
2022/10/07 08:13:50;;;;;;;11.60;4.05;;;;;;;13.57;63.92;102071.75;3578210;40;20072;-62
2022/10/07 08:16:19;;;;;;;12.55;3.33;;;;;;;14.48;63.08;102192.84;3582509;40;20048;-62
2022/10/07 08:18:49;;;;;;;15.05;3.42;;;;;;;14.56;61.62;102185.22;3581990;40;20059;-62
2022/10/07 08:21:19;;;;;;;12.98;3.17;;;;;;;14.62;62.03;102189.41;3583374;40;20076;-63
2022/10/07 08:23:46;;;;;;;13.88;3.35;;;;;;;14.75;61.49;102181.47;3578901;40;20075;-63
2022/10/07 08:26:13;;;;;;;10.10;2.70;;;;;;;14.31;61.05;102065.78;3582006;40;20051;-63
2022/10/07 08:28:40;;;;;;;11.95;3.47;;;;;;;14.50;59.85;102088.13;3580029;39;20118;-63
2022/10/07 08:31:11;;;;;;;12.98;3.20;;;;;;;15.22;60.46;102183.19;3575879;40;20072;-63
2022/10/07 08:33:43;;;;;;;10.23;2.97;;;;;;;15.47;60.02;102183.44;3578249;40;20070;-63
2022/10/07 08:36:16;;;;;;;13.82;3.50;;;;;;;15.70;59.30;102189.34;3588353;39;20368;-63
2022/10/07 08:38:43;;;;;;;11.23;2.95;;;;;;;15.66;58.96;102142.53;3579141;40;20060;-63
2022/10/07 08:41:15;;;;;;;10.82;3.45;;;;;;;16.12;58.57;102176.78;3579054;40;20402;-64
2022/10/07 08:43:48;;;;;;;11.18;3.00;;;;;;;16.44;57.40;102174.72;3578833;40;20052;-64
2022/10/07 08:46:19;;;;;;;16.55;3.72;;;;;;;16.53;57.12;102168.69;3580499;40;20092;-64
2022/10/07 08:48:57;;;;;;;10.25;2.72;;;;;;;15.89;56.85;102048.94;3581343;40;20294;-63
2022/10/07 08:51:43;;;;;;;13.65;3.30;;;;;;;16.71;56.60;102172.00;3578729;40;20088;-63
2022/10/07 08:54:14;;;;;;;11.50;3.00;;;;;;;16.91;56.46;102165.31;3577122;40;20146;-63
2022/10/07 08:56:42;;;;;;;9.73;2.60;;;;;;;17.02;56.15;102159.13;3578962;40;20049;-63
2022/10/07 08:59:33;;;;;;;7.75;2.70;;;;;;;17.06;55.95;102156.13;3577586;40;20061;-63
2022/10/07 09:02:42;;;;;;;13.43;3.40;;;;;;;17.16;55.81;102145.50;3579725;40;20068;-64
2022/10/07 09:05:32;;;;;;;7.82;2.63;;;;;;;17.22;55.24;102147.78;3579350;40;20056;-65
2022/10/07 09:08:09;;;;;;;9.43;3.20;;;;;;;17.13;54.90;102145.69;3576418;40;20563;-64
2022/10/07 09:10:49;;;;;;;9.02;2.80;;;;;;;17.15;54.97;102144.59;3581079;40;20051;-64
2022/10/07 09:13:34;;;;;;;13.95;3.13;;;;;;;17.22;55.34;102138.75;3580561;40;20185;-64
2022/10/07 09:16:18;;;;;;;11.27;3.00;;;;;;;17.51;54.90;102140.31;3577438;40;20392;-64
2022/10/07 09:18:55;;;;;;;;;;;;;;;17.66;54.38;102142.91;3578957;40;20146;-65
2022/10/07 09:21:35;;;;;;;12.55;2.63;;;;;;;17.24;53.62;102039.81;3577088;40;19948;-64
2022/10/07 09:24:23;;;;;;;12.93;3.08;;;;;;;17.47;53.19;102037.31;3581102;40;20065;-64
2022/10/07 09:26:55;;;;;;;14.23;4.78;;;;;;;18.33;52.64;102128.06;3581075;40;20070;-64
2022/10/07 09:29:28;;;;;;;7.93;2.40;;;;;;;18.54;51.46;102130.16;3576900;40;20064;-64
2022/10/07 09:31:56;;;;;;;10.15;2.60;;;;;;;18.66;51.53;102117.50;3578110;40;20062;-64
2022/10/07 09:34:27;;;;;;;10.30;2.88;;;;;;;18.83;50.47;102121.69;3586849;39;20094;-65
2022/10/07 09:37:17;;;;;;;11.82;2.83;;;;;;;18.78;50.07;102117.47;3579412;40;20123;-63
2022/10/07 09:39:46;;;;;;;9.25;2.40;;;;;;;18.91;50.34;102116.53;3579868;40;20369;-64
2022/10/07 09:42:32;;;;;;;9.57;2.13;;;;;;;19.05;50.11;102110.88;3579337;40;20092;-64
2022/10/07 09:45:05;;;;;;;11.02;3.03;;;;;;;19.10;48.87;102103.22;3587086;39;20048;-64
2022/10/07 09:47:39;;;;;;;8.50;2.65;;;;;;;19.04;49.41;102111.00;3579007;40;20369;-64
2022/10/07 09:50:29;;;;;;;10.00;2.88;;;;;;;18.82;49.39;102103.63;3579100;40;20349;-64
2022/10/07 09:52:55;;;;;;;12.75;2.50;;;;;;;18.90;51.23;102098.44;3585160;40;20060;-64
2022/10/07 09:55:39;;;;;;;10.63;2.58;;;;;;;19.22;49.61;102099.53;3580807;40;20334;-65
2022/10/07 09:58:29;;;;;;;8.65;2.42;;;;;;;18.83;50.40;101990.91;3582464;40;20063;-65
2022/10/07 10:01:10;;;;;;;8.73;2.55;;;;;;;19.76;49.72;102098.06;3580843;40;20056;-64
2022/10/07 10:03:37;;;;;;;11.23;2.67;;;;;;;19.92;47.36;102093.09;3578006;40;20362;-64
2022/10/07 10:06:11;;;;;;;10.55;3.13;;;;;;;19.97;47.25;102095.41;3578958;40;20052;-64
2022/10/07 10:08:43;;;;;;;12.52;2.90;;;;;;;19.96;46.47;102093.69;3581047;40;20111;-64
2022/10/07 10:11:29;;;;;;;10.15;2.92;;;;;;;19.87;46.85;102091.72;3581352;40;20055;-63
2022/10/07 10:13:55;;;;;;;10.30;2.92;;;;;;;19.97;47.02;102089.97;3578869;40;20064;-64
2022/10/07 10:16:23;;;;;;;12.20;2.67;;;;;;;20.13;46.65;102087.72;3580964;40;20104;-64
2022/10/07 10:18:53;;;;;;;7.70;2.13;;;;;;;20.18;46.37;102076.44;3580837;40;20048;-64
2022/10/07 10:21:28;;;;;;;12.77;2.60;;;;;;;20.27;45.78;102066.59;3579359;40;20130;-65
2022/10/07 10:24:14;;;;;;;9.25;2.33;;;;;;;20.48;45.22;102072.97;3578589;40;20062;-64
2022/10/07 10:27:08;;;;;;;11.65;2.58;;;;;;;20.45;44.58;102067.78;3579488;40;20056;-64
2022/10/07 10:30:00;;;;;;;11.10;2.45;;;;;;;20.34;44.48;102062.38;3579988;40;20056;-64
2022/10/07 10:32:53;;;;;;;11.00;2.58;;;;;;;20.37;45.83;102048.44;3573013;40;20071;-64
2022/10/07 10:35:33;;;;;;;10.43;2.78;;;;;;;20.62;44.25;102053.59;3577283;40;20448;-64
2022/10/07 10:38:09;;;;;;;8.23;2.35;;;;;;;20.78;44.66;102047.69;3580818;40;20133;-64
2022/10/07 10:40:53;;;;;;;15.25;3.17;;;;;;;20.93;43.91;102040.06;3579961;40;20068;-64
2022/10/07 10:43:24;;;;;;;11.10;2.90;;;;;;;21.16;43.26;102034.44;3578524;40;20551;-64
2022/10/07 10:46:22;;;;;;;8.57;2.17;;;;;;;21.23;42.17;102024.69;3579993;40;20052;-64
2022/10/07 10:49:33;;;;;;;9.13;2.42;;;;;;;21.40;41.97;102024.09;3577122;40;20331;-63
2022/10/07 10:52:14;;;;;;;10.55;2.30;;;;;;;20.97;42.48;101934.91;3579500;40;20068;-63
2022/10/07 10:55:12;;;;;;;10.48;2.47;;;;;;;21.59;42.15;102019.72;3579650;40;20556;-64
2022/10/07 10:58:23;;;;;;;8.32;2.40;;;;;;;21.62;42.20;102003.88;3578253;40;20055;-63
2022/10/07 11:01:05;;;;;;;10.13;2.30;;;;;;;21.85;42.21;102011.88;3579323;40;20064;-64
2022/10/07 11:04:09;;;;;;;10.88;2.72;;;;;;;21.89;42.18;102006.00;3578810;40;20064;-63
2022/10/07 11:06:41;;;;;;;11.68;2.42;;;;;;;21.94;40.54;102009.16;3575504;40;20052;-64
2022/10/07 11:09:18;;;;;;;9.38;2.40;;;;;;;21.73;41.16;102000.19;3577103;40;20383;-64
2022/10/07 11:11:44;;;;;;;8.05;2.10;;;;;;;21.65;40.45;102008.22;3581175;40;20226;-63
2022/10/07 11:14:21;;;;;;;9.75;2.03;;;;;;;21.67;40.19;101995.28;3582087;40;20117;-63
2022/10/07 11:16:55;;;;;;;7.93;2.22;;;;;;;21.64;40.30;101993.69;3580878;40;20066;-64
2022/10/07 11:19:43;;;;;;;9.40;2.28;;;;;;;21.05;40.33;101863.97;3584403;40;20137;-63
2022/10/07 11:22:32;;;;;;;8.00;2.20;;;;;;;22.13;40.08;101980.09;3584861;40;20049;-63
2022/10/07 11:25:15;;;;;;;8.65;2.25;;;;;;;22.38;39.73;101982.31;3583586;40;20053;-63
2022/10/07 11:27:50;;;;;;;8.82;3.20;;;;;;;22.30;39.14;101973.09;3581898;40;20129;-64
2022/10/07 11:30:32;;;;;;;10.93;2.35;;;;;;;22.42;39.06;101971.94;3581009;40;20079;-64
2022/10/07 11:33:30;;;;;;;11.18;2.53;;;;;;;22.61;40.46;101962.84;3580191;40;20067;-64
2022/10/07 11:36:12;;;;;;;6.88;1.90;;;;;;;22.35;39.42;101861.19;3582014;40;20310;-66
2022/10/07 11:38:40;;;;;;;7.75;2.30;;;;;;;23.15;38.52;101944.84;3581933;40;20072;-64
2022/10/07 11:41:32;;;;;;;8.43;2.50;;;;;;;23.07;38.16;101857.84;3579293;40;20059;-64
2022/10/07 11:44:12;;;;;;;9.93;2.38;;;;;;;23.64;37.74;101915.31;3581858;40;20056;-64
2022/10/07 11:46:43;;;;;;;9.32;2.35;;;;;;;23.60;37.88;101923.00;3583154;40;20549;-63
2022/10/07 11:50:13;;;;;;;11.05;2.40;;;;;;;23.32;37.05;101927.59;3581132;40;20060;-63
2022/10/07 11:52:45;;;;;;;5.57;2.00;;;;;;;23.10;38.54;101919.75;3535590;40;20058;-64